Asolare — ZCDI3 — position and weather

sailwx.info

Track history (hours):
 
Tides and Currents Weather Stations Pressure Air Temp Water Temp Dewpoint Dewpoint Depression Visibility Wind Speed Wind Dir Waves Ship Positions

Asolare

Last reported at 2016-Aug-23 06:06 UTC. Time now 2016-Aug-28 05:09 UTC.
Position N 40°35' E 005°55'.

Length 47 m; draft 4.9 m.

Type: Sailing vessel. MMSI: 310413000.

Date/timePositionNaut miles runAvg speedWind from/ knotsBaromVisibWave heightAir tempDewpointWater temp
2016-Aug-23 06:06N 40°35' E 005°55'3710.4
2016-Aug-23 02:33N 40°24' E 005°08'1311.1
2016-Aug-23 01:22N 40°19' E 004°52'1310.9
2016-Aug-23 00:13N 40°15' E 004°37'710.5
2016-Aug-22 23:33N 40°13' E 004°28'5210.2
2016-Aug-22 18:25N 40°02' E 003°21'2210.4
2016-Aug-22 16:17N 39°55' E 002°54'810.4
2016-Aug-22 15:33N 39°51' E 002°45'7 7.3
2016-Aug-22 14:33N 39°46' E 002°38'9 9.0
2016-Aug-22 13:33N 39°41' E 002°29'11 9.6
2016-Aug-22 12:28N 39°32' E 002°21'7 7.2
2016-Aug-22 11:33N 39°29' E 002°28'0 0.0
2016-Aug-22 10:33N 39°29' E 002°28'0 0.0
2016-Aug-22 09:33N 39°29' E 002°28'0 0.0
2016-Aug-22 08:33N 39°29' E 002°28'0 0.0
2016-Aug-22 07:33N 39°29' E 002°28'0 0.0
2016-Aug-22 06:33N 39°29' E 002°28'1 0.6
2016-Aug-22 05:33N 39°29' E 002°28'4 3.8
2016-Aug-22 04:33N 39°28' E 002°23'10 9.6
2016-Aug-22 03:33N 39°24' E 002°12'1010.0
2016-Aug-22 02:34N 39°19' E 002°01'1010.0
2016-Aug-22 01:33N 39°15' E 001°49'10 9.8
2016-Aug-22 00:33N 39°11' E 001°37'10 9.8
2016-Aug-21 23:33N 39°06' E 001°26'13 1.6
2016-Aug-21 15:24N 38°59' E 001°12'10 5.6
2016-Aug-21 13:34N 38°50' E 001°18'8 7.7
2016-Aug-21 12:33N 38°53' E 001°27'1 0.1
2016-Aug-20 18:14N 38°55' E 001°28'1 1.3
2016-Aug-20 17:33N 38°54' E 001°27'8 8.0
2016-Aug-20 16:33N 38°46' E 001°26'0 0.2
2016-Aug-20 15:33N 38°46' E 001°26'0 0.3
2016-Aug-20 14:33N 38°46' E 001°26'4 3.6
2016-Aug-20 13:26N 38°42' E 001°22'0 0.1
2016-Aug-20 10:25N 38°42' E 001°23'9 9.9
2016-Aug-20 09:33N 38°50' E 001°27'5 2.3
2016-Aug-20 07:31N 38°55' E 001°29'0 0.0
2016-Aug-20 05:32N 38°55' E 001°29'0 0.0
2016-Aug-20 04:33N 38°55' E 001°29'0 0.0
2016-Aug-20 03:15N 38°55' E 001°29'0 0.0
2016-Aug-20 02:33N 38°55' E 001°29'0 0.0
2016-Aug-20 01:33N 38°55' E 001°29'0 0.0
2016-Aug-20 00:31N 38°55' E 001°29'0 0.0
2016-Aug-19 23:34N 38°55' E 001°29'0 0.0
2016-Aug-19 22:33N 38°55' E 001°29'0 0.0
2016-Aug-19 21:32N 38°55' E 001°29'0 0.0
2016-Aug-19 20:33N 38°55' E 001°29'0 0.0
2016-Aug-19 19:33N 38°55' E 001°29'0 0.0
2016-Aug-19 18:33N 38°55' E 001°29'0 0.0
2016-Aug-19 17:33N 38°55' E 001°29'0 0.0
2016-Aug-19 16:33N 38°55' E 001°29'0 0.0
2016-Aug-19 15:33N 38°55' E 001°29'0 0.0
2016-Aug-19 14:33N 38°55' E 001°29'0 0.0
2016-Aug-19 13:33N 38°55' E 001°29'0 0.0
2016-Aug-19 12:34N 38°55' E 001°29'0 0.0
2016-Aug-19 11:33N 38°55' E 001°29'0 0.3
2016-Aug-19 10:33N 38°55' E 001°29'4 4.4
2016-Aug-19 09:33N 38°59' E 001°32'0 0.0
2016-Aug-19 08:32N 38°59' E 001°32'0 0.0
2016-Aug-19 07:32N 38°59' E 001°32'0 0.0
2016-Aug-19 06:32N 38°59' E 001°32'0 0.0
2016-Aug-19 05:31N 38°59' E 001°32'0 0.0
2016-Aug-19 04:33N 38°59' E 001°32'0 0.0
2016-Aug-19 03:32N 38°59' E 001°32'0 0.0
2016-Aug-19 02:32N 38°59' E 001°32'0 0.0
2016-Aug-19 01:32N 38°59' E 001°32'0 0.0
2016-Aug-19 00:31N 38°59' E 001°32'0 0.0
2016-Aug-18 23:32N 38°59' E 001°32'0 0.0
2016-Aug-18 22:31N 38°59' E 001°32'0 0.0
2016-Aug-18 21:32N 38°59' E 001°32'0 0.0
2016-Aug-18 20:31N 38°59' E 001°32'0 0.0
2016-Aug-18 19:32N 38°59' E 001°32'0 0.0
2016-Aug-18 18:31N 38°59' E 001°32'0 0.0
2016-Aug-18 17:32N 38°59' E 001°32'0 0.0
2016-Aug-18 16:32N 38°59' E 001°32'0 0.0
2016-Aug-18 15:32N 38°59' E 001°32'0 0.0
2016-Aug-18 14:32N 38°59' E 001°32'0 0.0
2016-Aug-18 13:32N 38°59' E 001°32'0 0.0
2016-Aug-18 12:32N 38°59' E 001°32'0 0.0
2016-Aug-18 11:33N 38°59' E 001°32'0 0.0
2016-Aug-18 10:33N 38°59' E 001°32'0 0.0
2016-Aug-18 09:33N 38°59' E 001°32'1 1.3
2016-Aug-18 08:29N 38°59' E 001°34'0 0.0
2016-Aug-18 07:29N 38°59' E 001°34'0 0.0
2016-Aug-18 06:32N 38°59' E 001°34'0 0.0
2016-Aug-18 05:33N 38°59' E 001°34'0 0.0
2016-Aug-18 04:33N 38°59' E 001°34'0 0.0
2016-Aug-18 03:33N 38°59' E 001°34'0 0.0
2016-Aug-18 02:33N 38°59' E 001°34'4 4.2
2016-Aug-18 01:33N 39°00' E 001°39'8 7.9
2016-Aug-18 00:33N 39°05' E 001°47'1110.6
2016-Aug-17 23:33N 39°13' E 001°56'1110.8
2016-Aug-17 22:33N 39°22' E 002°04'1110.9
2016-Aug-17 21:33N 39°31' E 002°11'1110.6
2016-Aug-17 20:33N 39°39' E 002°21'1111.6
2016-Aug-17 19:33N 39°45' E 002°33'1211.5
2016-Aug-17 18:33N 39°52' E 002°46'26 6.6
2016-Aug-17 14:32N 40°05' E 003°16'1111.0
2016-Aug-17 13:30N 40°16' E 003°21'1011.0
2016-Aug-17 12:34N 40°25' E 003°26'1110.8
2016-Aug-17 11:34N 40°35' E 003°31'15210.8
2016-Aug-16 21:33N 42°26' E 005°49'4511.2
2016-Aug-16 17:30N 42°59' E 006°32'1010.7
2016-Aug-16 16:33N 43°07' E 006°41'1010.3
2016-Aug-16 15:33N 43°15' E 006°50'1010.2
2016-Aug-16 14:33N 43°23' E 006°59'1010.3
2016-Aug-16 13:33N 43°31' E 007°07'10 9.9
2016-Aug-16 12:33N 43°39' E 007°15'  
2016-Aug-13 16:33N 43°41' E 007°19'6 6.1
2016-Aug-13 15:33N 43°44' E 007°25'0 0.5
2016-Aug-13 14:33N 43°44' E 007°26'1110.9
2016-Aug-13 13:34N 43°38' E 007°14'3 2.5
2016-Aug-13 12:33N 43°39' E 007°11'4 4.2
2016-Aug-13 11:33N 43°35' E 007°09'5 5.0
2016-Aug-13 10:28N 43°32' E 007°03'1 0.9
2016-Aug-13 09:33N 43°31' E 007°04'1010.4
2016-Aug-13 08:33N 43°23' E 006°55'1110.8
2016-Aug-13 07:33N 43°16' E 006°44'  
Track history (hours):
 
Tides and Currents Weather Stations Pressure Air Temp Water Temp Dewpoint Dewpoint Depression Visibility Wind Speed Wind Dir Waves Ship Positions

Asolare

Last reported at 2016-Aug-23 06:06 UTC. Time now 2016-Aug-28 05:09 UTC.
Position N 40°35' E 005°55'.

Length 47 m; draft 4.9 m.

Type: Sailing vessel. MMSI: 310413000.

Date/timePositionNaut miles runAvg speedWind from/ knotsBaromVisibWave heightAir tempDewpointWater temp
2016-Aug-23 06:06N 40°35' E 005°55'3710.4
2016-Aug-23 02:33N 40°24' E 005°08'1311.1
2016-Aug-23 01:22N 40°19' E 004°52'1310.9
2016-Aug-23 00:13N 40°15' E 004°37'710.5
2016-Aug-22 23:33N 40°13' E 004°28'5210.2
2016-Aug-22 18:25N 40°02' E 003°21'2210.4
2016-Aug-22 16:17N 39°55' E 002°54'810.4
2016-Aug-22 15:33N 39°51' E 002°45'7 7.3
2016-Aug-22 14:33N 39°46' E 002°38'9 9.0
2016-Aug-22 13:33N 39°41' E 002°29'11 9.6
2016-Aug-22 12:28N 39°32' E 002°21'7 7.2
2016-Aug-22 11:33N 39°29' E 002°28'0 0.0
2016-Aug-22 10:33N 39°29' E 002°28'0 0.0
2016-Aug-22 09:33N 39°29' E 002°28'0 0.0
2016-Aug-22 08:33N 39°29' E 002°28'0 0.0
2016-Aug-22 07:33N 39°29' E 002°28'0 0.0
2016-Aug-22 06:33N 39°29' E 002°28'1 0.6
2016-Aug-22 05:33N 39°29' E 002°28'4 3.8
2016-Aug-22 04:33N 39°28' E 002°23'10 9.6
2016-Aug-22 03:33N 39°24' E 002°12'1010.0
2016-Aug-22 02:34N 39°19' E 002°01'1010.0
2016-Aug-22 01:33N 39°15' E 001°49'10 9.8
2016-Aug-22 00:33N 39°11' E 001°37'10 9.8
2016-Aug-21 23:33N 39°06' E 001°26'13 1.6
2016-Aug-21 15:24N 38°59' E 001°12'10 5.6
2016-Aug-21 13:34N 38°50' E 001°18'8 7.7
2016-Aug-21 12:33N 38°53' E 001°27'1 0.1
2016-Aug-20 18:14N 38°55' E 001°28'1 1.3
2016-Aug-20 17:33N 38°54' E 001°27'8 8.0
2016-Aug-20 16:33N 38°46' E 001°26'0 0.2
2016-Aug-20 15:33N 38°46' E 001°26'0 0.3
2016-Aug-20 14:33N 38°46' E 001°26'4 3.6
2016-Aug-20 13:26N 38°42' E 001°22'0 0.1
2016-Aug-20 10:25N 38°42' E 001°23'9 9.9
2016-Aug-20 09:33N 38°50' E 001°27'5 2.3
2016-Aug-20 07:31N 38°55' E 001°29'0 0.0
2016-Aug-20 05:32N 38°55' E 001°29'0 0.0
2016-Aug-20 04:33N 38°55' E 001°29'0 0.0
2016-Aug-20 03:15N 38°55' E 001°29'0 0.0
2016-Aug-20 02:33N 38°55' E 001°29'0 0.0
2016-Aug-20 01:33N 38°55' E 001°29'0 0.0
2016-Aug-20 00:31N 38°55' E 001°29'0 0.0
2016-Aug-19 23:34N 38°55' E 001°29'0 0.0
2016-Aug-19 22:33N 38°55' E 001°29'0 0.0
2016-Aug-19 21:32N 38°55' E 001°29'0 0.0
2016-Aug-19 20:33N 38°55' E 001°29'0 0.0
2016-Aug-19 19:33N 38°55' E 001°29'0 0.0
2016-Aug-19 18:33N 38°55' E 001°29'0 0.0
2016-Aug-19 17:33N 38°55' E 001°29'0 0.0
2016-Aug-19 16:33N 38°55' E 001°29'0 0.0
2016-Aug-19 15:33N 38°55' E 001°29'0 0.0
2016-Aug-19 14:33N 38°55' E 001°29'0 0.0
2016-Aug-19 13:33N 38°55' E 001°29'0 0.0
2016-Aug-19 12:34N 38°55' E 001°29'0 0.0
2016-Aug-19 11:33N 38°55' E 001°29'0 0.3
2016-Aug-19 10:33N 38°55' E 001°29'4 4.4
2016-Aug-19 09:33N 38°59' E 001°32'0 0.0
2016-Aug-19 08:32N 38°59' E 001°32'0 0.0
2016-Aug-19 07:32N 38°59' E 001°32'0 0.0
2016-Aug-19 06:32N 38°59' E 001°32'0 0.0
2016-Aug-19 05:31N 38°59' E 001°32'0 0.0
2016-Aug-19 04:33N 38°59' E 001°32'0 0.0
2016-Aug-19 03:32N 38°59' E 001°32'0 0.0
2016-Aug-19 02:32N 38°59' E 001°32'0 0.0
2016-Aug-19 01:32N 38°59' E 001°32'0 0.0
2016-Aug-19 00:31N 38°59' E 001°32'0 0.0
2016-Aug-18 23:32N 38°59' E 001°32'0 0.0
2016-Aug-18 22:31N 38°59' E 001°32'0 0.0
2016-Aug-18 21:32N 38°59' E 001°32'0 0.0
2016-Aug-18 20:31N 38°59' E 001°32'0 0.0
2016-Aug-18 19:32N 38°59' E 001°32'0 0.0
2016-Aug-18 18:31N 38°59' E 001°32'0 0.0
2016-Aug-18 17:32N 38°59' E 001°32'0 0.0
2016-Aug-18 16:32N 38°59' E 001°32'0 0.0
2016-Aug-18 15:32N 38°59' E 001°32'0 0.0
2016-Aug-18 14:32N 38°59' E 001°32'0 0.0
2016-Aug-18 13:32N 38°59' E 001°32'0 0.0
2016-Aug-18 12:32N 38°59' E 001°32'0 0.0
2016-Aug-18 11:33N 38°59' E 001°32'0 0.0
2016-Aug-18 10:33N 38°59' E 001°32'0 0.0
2016-Aug-18 09:33N 38°59' E 001°32'1 1.3
2016-Aug-18 08:29N 38°59' E 001°34'0 0.0
2016-Aug-18 07:29N 38°59' E 001°34'0 0.0
2016-Aug-18 06:32N 38°59' E 001°34'0 0.0
2016-Aug-18 05:33N 38°59' E 001°34'0 0.0
2016-Aug-18 04:33N 38°59' E 001°34'0 0.0
2016-Aug-18 03:33N 38°59' E 001°34'0 0.0
2016-Aug-18 02:33N 38°59' E 001°34'4 4.2
2016-Aug-18 01:33N 39°00' E 001°39'8 7.9
2016-Aug-18 00:33N 39°05' E 001°47'1110.6
2016-Aug-17 23:33N 39°13' E 001°56'1110.8
2016-Aug-17 22:33N 39°22' E 002°04'1110.9
2016-Aug-17 21:33N 39°31' E 002°11'1110.6
2016-Aug-17 20:33N 39°39' E 002°21'1111.6
2016-Aug-17 19:33N 39°45' E 002°33'1211.5
2016-Aug-17 18:33N 39°52' E 002°46'26 6.6
2016-Aug-17 14:32N 40°05' E 003°16'1111.0
2016-Aug-17 13:30N 40°16' E 003°21'1011.0
2016-Aug-17 12:34N 40°25' E 003°26'1110.8
2016-Aug-17 11:34N 40°35' E 003°31'15210.8
2016-Aug-16 21:33N 42°26' E 005°49'4511.2
2016-Aug-16 17:30N 42°59' E 006°32'1010.7
2016-Aug-16 16:33N 43°07' E 006°41'1010.3
2016-Aug-16 15:33N 43°15' E 006°50'1010.2
2016-Aug-16 14:33N 43°23' E 006°59'1010.3
2016-Aug-16 13:33N 43°31' E 007°07'10 9.9
2016-Aug-16 12:33N 43°39' E 007°15'  
2016-Aug-13 16:33N 43°41' E 007°19'6 6.1
2016-Aug-13 15:33N 43°44' E 007°25'0 0.5
2016-Aug-13 14:33N 43°44' E 007°26'1110.9
2016-Aug-13 13:34N 43°38' E 007°14'3 2.5
2016-Aug-13 12:33N 43°39' E 007°11'4 4.2
2016-Aug-13 11:33N 43°35' E 007°09'5 5.0
2016-Aug-13 10:28N 43°32' E 007°03'1 0.9
2016-Aug-13 09:33N 43°31' E 007°04'1010.4
2016-Aug-13 08:33N 43°23' E 006°55'1110.8
2016-Aug-13 07:33N 43°16' E 006°44'  

Dump ship's entire track history